Helston, United Kingdom
Current Conditions -  °F | °C
As of 12:50 PM on Saturday 25 Oct 2014 (Local Time) from EGDR Reporting Station
Rain Showers Rain Showers  
Wind Chill: 13°   Ceiling: 4000
Heat Index: 13°   Visibility: 6mi
Dew Point: 10°   Wind: 9mph
Humidity: 82%   Direction: 240°WSW
Pressure: 30.12"   Gusts: NA
Location:  50.08°N, 5.2°W
Report Text: EGDR 251150Z 24008KT 9999 VCSH FEW016 SCT032 BKN040 13/10 Q1020 BLU
Loading
Personal Weather Stations






























Interactive Weather Map
Tropical Storm Tracking
New forecast layout! Learn more

10-Day Weather Forecast

Advertisements
Track Severe Weather on mobile